Airfield :
LOGIN :

Register | Disclaimer

   EN    FR    IT 

 










Legend :    VFR   Marginal VFR   IFR   Intensive IFR   Very Intensive IFR
Visi :
Ceiling :
>= 8 km
>= 3000ft
5 to 8 km
1000 to 3000 ft
1500m to 5 km
500 to 1000 ft
800 to 1500m
200 to 500 ft
< 800m
< 200 ft
Symbols :   Thunderstorms  Fog  Heavy snow  Heavy precipitations  Wind > 20 kt
SIGMETs :     Misc.  Thunderstorms  Icing  Turbulence  Mountain Waves  Volcanic Ashes






- Airport Elevation : 76 ft
- IATA code : KID


ESMK - Kristianstad

CURRENT METAR :
  • 191650Z 14004KT 7000 -RA BKN007 01/01 Q1000

EXPIRED METARs :
  • 191620Z 13004KT 8000 BKN008 01/01 Q1000
  • 191550Z 14004KT 7000 -RA BKN038 01/01 Q1001
  • 191520Z 15006KT 7000 -RA BKN019 01/01 Q1001
  • 191450Z 15007KT 7000 -RA FEW007 SCT010 BKN020 02/01 Q1001
  • 191420Z 14006KT 6000 -RA SCT009 BKN017 BKN033 02/02 Q1001

TAF TAF ESMK
Valid from the 19 at 15:00 until the 19 at 18:00 UTC


191401Z 1915/1918 15006KT 6000 -RADZ SCT005 BKN010
TEMPO 1915/1918 2000 -RASN BR BKN004



MET'MAP, your aeronautical weather chart ! - Copyright ORBIFLY December 2007 - Disclaimer

ORBIFLY MET'MAP TEAM :

Programming & Development : Alexandra Zaïnal
Concept & original design : Baudouin d'Aumeries
Assistance for programming : Marc-Olivier Méhu
Technical & hardware support : Manuel Goepfert

Contact : metmap@orbifly.com




SOURCES & CREDITS :

   NOAA